sensor_id;sensor_type;location;lat;lon;timestamp;P1;durP1;ratioP1;P2;durP2;ratioP2
20456;SDS011;10387;51.102;6.848;2023-04-24T00:00:03;1.40;;;1.30;;
20456;SDS011;10387;51.102;6.848;2023-04-24T00:02:36;2.07;;;1.60;;
20456;SDS011;10387;51.102;6.848;2023-04-24T00:05:06;1.67;;;1.57;;
20456;SDS011;10387;51.102;6.848;2023-04-24T00:07:33;1.50;;;1.40;;
20456;SDS011;10387;51.102;6.848;2023-04-24T00:10:00;1.67;;;1.57;;
20456;SDS011;10387;51.102;6.848;2023-04-24T00:12:26;2.23;;;1.77;;
20456;SDS011;10387;51.102;6.848;2023-04-24T00:14:52;1.67;;;1.43;;
20456;SDS011;10387;51.102;6.848;2023-04-24T00:17:19;3.10;;;1.67;;
20456;SDS011;10387;51.102;6.848;2023-04-24T00:19:49;2.10;;;1.40;;
20456;SDS011;10387;51.102;6.848;2023-04-24T00:22:17;2.37;;;1.53;;
20456;SDS011;10387;51.102;6.848;2023-04-24T00:24:47;1.20;;;1.20;;
20456;SDS011;10387;51.102;6.848;2023-04-24T00:27:13;2.50;;;1.47;;
20456;SDS011;10387;51.102;6.848;2023-04-24T00:29:39;2.87;;;1.70;;
20456;SDS011;10387;51.102;6.848;2023-04-24T00:32:05;1.90;;;1.40;;
20456;SDS011;10387;51.102;6.848;2023-04-24T00:34:31;3.03;;;1.57;;
20456;SDS011;10387;51.102;6.848;2023-04-24T00:36:58;2.10;;;1.77;;
20456;SDS011;10387;51.102;6.848;2023-04-24T00:39:24;1.50;;;1.40;;
20456;SDS011;10387;51.102;6.848;2023-04-24T00:41:50;1.63;;;1.33;;
20456;SDS011;10387;51.102;6.848;2023-04-24T00:44:17;1.57;;;1.40;;
20456;SDS011;10387;51.102;6.848;2023-04-24T00:46:43;1.90;;;1.80;;
20456;SDS011;10387;51.102;6.848;2023-04-24T00:49:09;1.70;;;1.60;;
20456;SDS011;10387;51.102;6.848;2023-04-24T00:51:36;2.97;;;1.40;;
20456;SDS011;10387;51.102;6.848;2023-04-24T00:54:02;3.63;;;1.53;;
20456;SDS011;10387;51.102;6.848;2023-04-24T00:56:28;2.33;;;1.70;;
20456;SDS011;10387;51.102;6.848;2023-04-24T00:58:55;2.30;;;1.83;;
20456;SDS011;10387;51.102;6.848;2023-04-24T01:01:21;2.40;;;1.90;;
20456;SDS011;10387;51.102;6.848;2023-04-24T01:03:49;3.37;;;1.90;;
20456;SDS011;10387;51.102;6.848;2023-04-24T01:06:18;2.50;;;1.67;;
20456;SDS011;10387;51.102;6.848;2023-04-24T01:08:44;2.73;;;2.03;;
20456;SDS011;10387;51.102;6.848;2023-04-24T01:11:12;2.33;;;1.90;;
20456;SDS011;10387;51.102;6.848;2023-04-24T01:13:38;2.20;;;2.00;;
20456;SDS011;10387;51.102;6.848;2023-04-24T01:16:05;2.03;;;1.80;;
20456;SDS011;10387;51.102;6.848;2023-04-24T01:18:33;2.23;;;2.03;;
20456;SDS011;10387;51.102;6.848;2023-04-24T01:20:59;2.40;;;2.20;;
20456;SDS011;10387;51.102;6.848;2023-04-24T01:23:30;3.67;;;2.57;;
20456;SDS011;10387;51.102;6.848;2023-04-24T01:25:56;4.30;;;3.17;;
20456;SDS011;10387;51.102;6.848;2023-04-24T01:28:24;3.57;;;3.07;;
20456;SDS011;10387;51.102;6.848;2023-04-24T01:30:50;6.27;;;4.27;;
20456;SDS011;10387;51.102;6.848;2023-04-24T01:33:21;4.93;;;4.30;;
20456;SDS011;10387;51.102;6.848;2023-04-24T01:35:47;4.73;;;3.90;;
20456;SDS011;10387;51.102;6.848;2023-04-24T01:38:14;6.13;;;4.30;;
20456;SDS011;10387;51.102;6.848;2023-04-24T01:40:40;5.20;;;4.50;;
20456;SDS011;10387;51.102;6.848;2023-04-24T01:43:06;5.03;;;4.53;;
20456;SDS011;10387;51.102;6.848;2023-04-24T01:45:32;6.87;;;4.67;;
20456;SDS011;10387;51.102;6.848;2023-04-24T01:47:58;6.10;;;5.00;;
20456;SDS011;10387;51.102;6.848;2023-04-24T01:50:27;5.70;;;5.10;;
20456;SDS011;10387;51.102;6.848;2023-04-24T01:52:53;7.50;;;5.47;;
20456;SDS011;10387;51.102;6.848;2023-04-24T01:55:20;7.00;;;5.43;;
20456;SDS011;10387;51.102;6.848;2023-04-24T01:57:46;7.07;;;5.40;;
20456;SDS011;10387;51.102;6.848;2023-04-24T02:00:12;7.17;;;5.70;;
20456;SDS011;10387;51.102;6.848;2023-04-24T02:02:39;7.33;;;5.90;;
20456;SDS011;10387;51.102;6.848;2023-04-24T02:05:06;8.23;;;6.20;;
20456;SDS011;10387;51.102;6.848;2023-04-24T02:07:35;6.07;;;5.47;;
20456;SDS011;10387;51.102;6.848;2023-04-24T02:10:01;6.93;;;6.10;;
20456;SDS011;10387;51.102;6.848;2023-04-24T02:12:30;6.67;;;6.00;;
20456;SDS011;10387;51.102;6.848;2023-04-24T02:14:56;7.70;;;6.53;;
20456;SDS011;10387;51.102;6.848;2023-04-24T02:17:22;7.40;;;6.23;;
20456;SDS011;10387;51.102;6.848;2023-04-24T02:19:48;9.87;;;6.50;;
20456;SDS011;10387;51.102;6.848;2023-04-24T02:22:15;6.83;;;6.13;;
20456;SDS011;10387;51.102;6.848;2023-04-24T02:24:41;9.00;;;7.43;;
20456;SDS011;10387;51.102;6.848;2023-04-24T02:27:08;9.03;;;7.70;;
20456;SDS011;10387;51.102;6.848;2023-04-24T02:29:35;8.90;;;7.90;;
20456;SDS011;10387;51.102;6.848;2023-04-24T02:32:01;10.47;;;8.57;;
20456;SDS011;10387;51.102;6.848;2023-04-24T02:34:27;9.77;;;8.13;;
20456;SDS011;10387;51.102;6.848;2023-04-24T02:36:53;9.70;;;8.70;;
20456;SDS011;10387;51.102;6.848;2023-04-24T02:39:19;11.13;;;8.27;;
20456;SDS011;10387;51.102;6.848;2023-04-24T02:41:45;10.03;;;7.90;;
20456;SDS011;10387;51.102;6.848;2023-04-24T02:44:11;12.27;;;8.97;;
20456;SDS011;10387;51.102;6.848;2023-04-24T02:46:38;11.87;;;9.20;;
20456;SDS011;10387;51.102;6.848;2023-04-24T02:49:06;11.07;;;8.93;;
20456;SDS011;10387;51.102;6.848;2023-04-24T02:51:32;10.73;;;8.93;;
20456;SDS011;10387;51.102;6.848;2023-04-24T02:53:58;11.17;;;8.80;;
20456;SDS011;10387;51.102;6.848;2023-04-24T02:56:24;12.10;;;8.73;;
20456;SDS011;10387;51.102;6.848;2023-04-24T02:58:51;10.87;;;8.70;;
20456;SDS011;10387;51.102;6.848;2023-04-24T03:01:17;11.27;;;8.70;;
20456;SDS011;10387;51.102;6.848;2023-04-24T03:03:43;12.37;;;8.77;;
20456;SDS011;10387;51.102;6.848;2023-04-24T03:06:09;10.60;;;8.60;;
20456;SDS011;10387;51.102;6.848;2023-04-24T03:08:35;9.70;;;8.60;;
20456;SDS011;10387;51.102;6.848;2023-04-24T03:11:02;12.23;;;9.60;;
20456;SDS011;10387;51.102;6.848;2023-04-24T03:13:28;11.57;;;9.20;;
20456;SDS011;10387;51.102;6.848;2023-04-24T03:15:54;13.70;;;8.77;;
20456;SDS011;10387;51.102;6.848;2023-04-24T03:18:20;11.63;;;9.07;;
20456;SDS011;10387;51.102;6.848;2023-04-24T03:20:48;11.13;;;8.80;;
20456;SDS011;10387;51.102;6.848;2023-04-24T03:23:14;11.37;;;9.10;;
20456;SDS011;10387;51.102;6.848;2023-04-24T03:25:41;10.10;;;8.10;;
20456;SDS011;10387;51.102;6.848;2023-04-24T03:28:09;11.10;;;8.40;;
20456;SDS011;10387;51.102;6.848;2023-04-24T03:30:42;14.00;;;8.67;;
20456;SDS011;10387;51.102;6.848;2023-04-24T03:33:09;13.57;;;9.23;;
20456;SDS011;10387;51.102;6.848;2023-04-24T03:35:39;11.93;;;9.03;;
20456;SDS011;10387;51.102;6.848;2023-04-24T03:38:09;10.63;;;8.80;;
20456;SDS011;10387;51.102;6.848;2023-04-24T03:40:41;11.37;;;9.30;;
20456;SDS011;10387;51.102;6.848;2023-04-24T03:43:45;11.33;;;9.07;;
20456;SDS011;10387;51.102;6.848;2023-04-24T03:46:11;12.03;;;9.43;;
20456;SDS011;10387;51.102;6.848;2023-04-24T03:48:43;12.20;;;9.63;;
20456;SDS011;10387;51.102;6.848;2023-04-24T03:51:09;11.37;;;9.27;;
20456;SDS011;10387;51.102;6.848;2023-04-24T03:53:38;11.13;;;9.47;;
20456;SDS011;10387;51.102;6.848;2023-04-24T03:56:05;12.93;;;9.47;;
20456;SDS011;10387;51.102;6.848;2023-04-24T03:58:32;13.20;;;10.07;;
20456;SDS011;10387;51.102;6.848;2023-04-24T04:00:59;12.73;;;9.80;;
20456;SDS011;10387;51.102;6.848;2023-04-24T04:03:46;12.60;;;9.17;;
20456;SDS011;10387;51.102;6.848;2023-04-24T04:06:15;14.77;;;10.00;;
20456;SDS011;10387;51.102;6.848;2023-04-24T04:08:41;15.63;;;10.43;;
20456;SDS011;10387;51.102;6.848;2023-04-24T04:11:08;15.33;;;9.97;;
20456;SDS011;10387;51.102;6.848;2023-04-24T04:13:34;14.23;;;9.97;;
20456;SDS011;10387;51.102;6.848;2023-04-24T04:16:00;11.03;;;9.23;;
20456;SDS011;10387;51.102;6.848;2023-04-24T04:18:27;10.30;;;9.20;;
20456;SDS011;10387;51.102;6.848;2023-04-24T04:20:53;12.90;;;9.63;;
20456;SDS011;10387;51.102;6.848;2023-04-24T04:23:19;11.40;;;9.93;;
20456;SDS011;10387;51.102;6.848;2023-04-24T04:26:03;11.73;;;9.73;;
20456;SDS011;10387;51.102;6.848;2023-04-24T04:28:42;13.60;;;9.23;;
20456;SDS011;10387;51.102;6.848;2023-04-24T04:31:10;9.60;;;8.60;;
20456;SDS011;10387;51.102;6.848;2023-04-24T04:33:37;12.27;;;9.33;;
20456;SDS011;10387;51.102;6.848;2023-04-24T04:36:05;11.17;;;9.07;;
20456;SDS011;10387;51.102;6.848;2023-04-24T04:38:35;8.83;;;8.00;;
20456;SDS011;10387;51.102;6.848;2023-04-24T04:41:12;12.20;;;9.30;;
20456;SDS011;10387;51.102;6.848;2023-04-24T04:43:39;11.37;;;8.43;;
20456;SDS011;10387;51.102;6.848;2023-04-24T04:46:06;9.33;;;7.93;;
20456;SDS011;10387;51.102;6.848;2023-04-24T04:48:33;9.13;;;8.17;;
20456;SDS011;10387;51.102;6.848;2023-04-24T04:51:01;10.40;;;8.27;;
20456;SDS011;10387;51.102;6.848;2023-04-24T04:53:27;9.87;;;8.30;;
20456;SDS011;10387;51.102;6.848;2023-04-24T04:55:54;9.60;;;7.97;;
20456;SDS011;10387;51.102;6.848;2023-04-24T04:58:25;9.17;;;8.20;;
20456;SDS011;10387;51.102;6.848;2023-04-24T05:00:54;10.43;;;7.83;;
20456;SDS011;10387;51.102;6.848;2023-04-24T05:03:35;9.53;;;7.90;;
20456;SDS011;10387;51.102;6.848;2023-04-24T05:06:06;9.93;;;8.00;;
20456;SDS011;10387;51.102;6.848;2023-04-24T05:08:35;9.70;;;7.93;;
20456;SDS011;10387;51.102;6.848;2023-04-24T05:11:03;8.30;;;7.03;;
20456;SDS011;10387;51.102;6.848;2023-04-24T05:13:30;7.97;;;7.17;;
20456;SDS011;10387;51.102;6.848;2023-04-24T05:15:57;9.17;;;7.53;;
20456;SDS011;10387;51.102;6.848;2023-04-24T05:18:25;9.37;;;7.30;;
20456;SDS011;10387;51.102;6.848;2023-04-24T05:20:51;8.00;;;6.83;;
20456;SDS011;10387;51.102;6.848;2023-04-24T05:23:17;8.50;;;7.23;;
20456;SDS011;10387;51.102;6.848;2023-04-24T05:25:46;8.60;;;7.13;;
20456;SDS011;10387;51.102;6.848;2023-04-24T05:28:13;8.43;;;7.53;;
20456;SDS011;10387;51.102;6.848;2023-04-24T05:30:41;10.23;;;7.40;;
20456;SDS011;10387;51.102;6.848;2023-04-24T05:33:07;10.43;;;8.17;;
20456;SDS011;10387;51.102;6.848;2023-04-24T05:35:34;9.60;;;8.60;;
20456;SDS011;10387;51.102;6.848;2023-04-24T05:38:01;11.20;;;8.10;;
20456;SDS011;10387;51.102;6.848;2023-04-24T05:40:27;11.77;;;9.17;;
20456;SDS011;10387;51.102;6.848;2023-04-24T05:42:53;10.90;;;9.33;;
20456;SDS011;10387;51.102;6.848;2023-04-24T05:45:19;10.07;;;8.40;;
20456;SDS011;10387;51.102;6.848;2023-04-24T05:47:46;10.63;;;8.40;;
20456;SDS011;10387;51.102;6.848;2023-04-24T05:50:12;9.80;;;7.90;;
20456;SDS011;10387;51.102;6.848;2023-04-24T05:52:38;9.70;;;8.70;;
20456;SDS011;10387;51.102;6.848;2023-04-24T05:55:16;9.70;;;7.03;;
20456;SDS011;10387;51.102;6.848;2023-04-24T05:57:43;10.03;;;7.33;;
20456;SDS011;10387;51.102;6.848;2023-04-24T06:00:10;9.40;;;7.33;;
20456;SDS011;10387;51.102;6.848;2023-04-24T06:02:48;9.70;;;7.90;;
20456;SDS011;10387;51.102;6.848;2023-04-24T06:05:14;8.70;;;7.53;;
20456;SDS011;10387;51.102;6.848;2023-04-24T06:07:41;8.43;;;7.43;;
20456;SDS011;10387;51.102;6.848;2023-04-24T06:10:08;8.27;;;7.37;;
20456;SDS011;10387;51.102;6.848;2023-04-24T06:12:41;8.07;;;7.27;;
20456;SDS011;10387;51.102;6.848;2023-04-24T06:15:13;7.97;;;7.17;;
20456;SDS011;10387;51.102;6.848;2023-04-24T06:17:50;9.10;;;7.13;;
20456;SDS011;10387;51.102;6.848;2023-04-24T06:20:17;8.07;;;6.60;;
20456;SDS011;10387;51.102;6.848;2023-04-24T06:22:44;8.50;;;6.93;;
20456;SDS011;10387;51.102;6.848;2023-04-24T06:25:10;7.20;;;5.77;;
20456;SDS011;10387;51.102;6.848;2023-04-24T06:27:37;5.97;;;5.37;;
20456;SDS011;10387;51.102;6.848;2023-04-24T06:30:03;6.80;;;5.20;;
20456;SDS011;10387;51.102;6.848;2023-04-24T06:32:30;7.17;;;5.83;;
20456;SDS011;10387;51.102;6.848;2023-04-24T06:34:58;6.90;;;5.47;;
20456;SDS011;10387;51.102;6.848;2023-04-24T06:37:24;6.60;;;5.80;;
20456;SDS011;10387;51.102;6.848;2023-04-24T06:39:50;6.60;;;5.47;;
20456;SDS011;10387;51.102;6.848;2023-04-24T06:42:16;5.63;;;5.13;;
20456;SDS011;10387;51.102;6.848;2023-04-24T06:44:43;5.53;;;4.70;;
20456;SDS011;10387;51.102;6.848;2023-04-24T06:47:10;6.53;;;5.00;;
20456;SDS011;10387;51.102;6.848;2023-04-24T06:49:38;6.40;;;4.60;;
20456;SDS011;10387;51.102;6.848;2023-04-24T06:52:04;4.70;;;4.30;;
20456;SDS011;10387;51.102;6.848;2023-04-24T06:54:31;5.37;;;4.87;;
20456;SDS011;10387;51.102;6.848;2023-04-24T06:56:57;4.80;;;4.40;;
20456;SDS011;10387;51.102;6.848;2023-04-24T06:59:24;5.00;;;4.50;;
20456;SDS011;10387;51.102;6.848;2023-04-24T07:01:50;5.20;;;4.30;;
20456;SDS011;10387;51.102;6.848;2023-04-24T07:04:16;5.03;;;4.10;;
20456;SDS011;10387;51.102;6.848;2023-04-24T07:06:43;4.50;;;4.00;;
20456;SDS011;10387;51.102;6.848;2023-04-24T07:09:12;3.93;;;3.50;;
20456;SDS011;10387;51.102;6.848;2023-04-24T07:11:40;3.53;;;3.23;;
20456;SDS011;10387;51.102;6.848;2023-04-24T07:14:06;3.50;;;2.60;;
20456;SDS011;10387;51.102;6.848;2023-04-24T07:16:32;2.33;;;2.13;;
20456;SDS011;10387;51.102;6.848;2023-04-24T07:18:58;2.43;;;2.20;;
20456;SDS011;10387;51.102;6.848;2023-04-24T07:21:25;2.33;;;2.13;;
20456;SDS011;10387;51.102;6.848;2023-04-24T07:23:52;2.53;;;2.33;;
20456;SDS011;10387;51.102;6.848;2023-04-24T07:26:19;2.80;;;2.33;;
20456;SDS011;10387;51.102;6.848;2023-04-24T07:28:45;2.47;;;2.27;;
20456;SDS011;10387;51.102;6.848;2023-04-24T07:31:12;3.13;;;2.53;;
20456;SDS011;10387;51.102;6.848;2023-04-24T07:33:38;2.10;;;1.90;;
20456;SDS011;10387;51.102;6.848;2023-04-24T07:36:04;3.30;;;2.60;;
20456;SDS011;10387;51.102;6.848;2023-04-24T07:38:30;2.50;;;2.30;;
20456;SDS011;10387;51.102;6.848;2023-04-24T07:40:56;2.60;;;2.40;;
20456;SDS011;10387;51.102;6.848;2023-04-24T07:43:22;2.67;;;2.27;;
20456;SDS011;10387;51.102;6.848;2023-04-24T07:45:49;2.57;;;1.93;;
20456;SDS011;10387;51.102;6.848;2023-04-24T07:48:16;2.17;;;1.97;;
20456;SDS011;10387;51.102;6.848;2023-04-24T07:50:43;2.73;;;2.53;;
20456;SDS011;10387;51.102;6.848;2023-04-24T07:53:09;1.60;;;1.50;;
20456;SDS011;10387;51.102;6.848;2023-04-24T07:55:35;1.73;;;1.10;;
20456;SDS011;10387;51.102;6.848;2023-04-24T07:58:01;1.77;;;1.20;;
20456;SDS011;10387;51.102;6.848;2023-04-24T08:00:28;0.67;;;0.67;;
20456;SDS011;10387;51.102;6.848;2023-04-24T08:02:54;0.73;;;0.73;;
20456;SDS011;10387;51.102;6.848;2023-04-24T08:05:20;0.60;;;0.60;;
20456;SDS011;10387;51.102;6.848;2023-04-24T08:07:46;1.23;;;0.87;;
20456;SDS011;10387;51.102;6.848;2023-04-24T08:10:15;1.13;;;1.00;;
20456;SDS011;10387;51.102;6.848;2023-04-24T08:12:41;1.33;;;1.23;;
20456;SDS011;10387;51.102;6.848;2023-04-24T08:15:07;1.57;;;1.40;;
20456;SDS011;10387;51.102;6.848;2023-04-24T08:17:34;2.00;;;1.50;;
20456;SDS011;10387;51.102;6.848;2023-04-24T08:20:00;2.83;;;2.50;;
20456;SDS011;10387;51.102;6.848;2023-04-24T08:22:27;3.00;;;2.70;;
20456;SDS011;10387;51.102;6.848;2023-04-24T08:24:54;3.50;;;2.70;;
20456;SDS011;10387;51.102;6.848;2023-04-24T08:27:21;3.57;;;3.27;;
20456;SDS011;10387;51.102;6.848;2023-04-24T08:29:48;4.10;;;3.30;;
20456;SDS011;10387;51.102;6.848;2023-04-24T08:32:14;6.57;;;3.97;;
20456;SDS011;10387;51.102;6.848;2023-04-24T08:34:40;4.27;;;3.33;;
20456;SDS011;10387;51.102;6.848;2023-04-24T08:37:06;3.60;;;3.30;;
20456;SDS011;10387;51.102;6.848;2023-04-24T08:39:32;3.77;;;3.10;;
20456;SDS011;10387;51.102;6.848;2023-04-24T08:41:59;3.90;;;3.50;;
20456;SDS011;10387;51.102;6.848;2023-04-24T08:44:31;4.13;;;3.47;;
20456;SDS011;10387;51.102;6.848;2023-04-24T08:46:58;3.70;;;3.40;;
20456;SDS011;10387;51.102;6.848;2023-04-24T08:49:24;3.83;;;3.50;;
20456;SDS011;10387;51.102;6.848;2023-04-24T08:51:52;4.57;;;4.00;;
20456;SDS011;10387;51.102;6.848;2023-04-24T08:54:18;6.07;;;3.93;;
20456;SDS011;10387;51.102;6.848;2023-04-24T08:56:44;4.47;;;4.00;;
20456;SDS011;10387;51.102;6.848;2023-04-24T08:59:10;4.93;;;3.97;;
20456;SDS011;10387;51.102;6.848;2023-04-24T09:01:37;5.63;;;5.00;;
20456;SDS011;10387;51.102;6.848;2023-04-24T09:04:05;5.70;;;4.80;;
20456;SDS011;10387;51.102;6.848;2023-04-24T09:06:32;6.30;;;5.40;;
20456;SDS011;10387;51.102;6.848;2023-04-24T09:09:00;6.00;;;5.40;;
20456;SDS011;10387;51.102;6.848;2023-04-24T09:11:26;8.33;;;5.87;;
20456;SDS011;10387;51.102;6.848;2023-04-24T09:13:53;6.60;;;5.73;;
20456;SDS011;10387;51.102;6.848;2023-04-24T09:16:20;7.57;;;6.20;;
20456;SDS011;10387;51.102;6.848;2023-04-24T09:18:48;7.47;;;6.53;;
20456;SDS011;10387;51.102;6.848;2023-04-24T09:21:14;6.93;;;5.87;;
20456;SDS011;10387;51.102;6.848;2023-04-24T09:23:40;7.03;;;5.80;;
20456;SDS011;10387;51.102;6.848;2023-04-24T09:26:07;9.20;;;6.33;;
20456;SDS011;10387;51.102;6.848;2023-04-24T09:28:37;10.23;;;6.43;;
20456;SDS011;10387;51.102;6.848;2023-04-24T09:33:30;8.90;;;5.90;;
20456;SDS011;10387;51.102;6.848;2023-04-24T09:36:00;8.77;;;6.63;;
20456;SDS011;10387;51.102;6.848;2023-04-24T09:38:38;8.83;;;7.53;;
20456;SDS011;10387;51.102;6.848;2023-04-24T09:41:05;11.70;;;6.93;;
20456;SDS011;10387;51.102;6.848;2023-04-24T09:43:32;10.53;;;7.17;;
20456;SDS011;10387;51.102;6.848;2023-04-24T09:45:58;9.80;;;7.40;;
20456;SDS011;10387;51.102;6.848;2023-04-24T09:48:33;11.13;;;7.93;;
20456;SDS011;10387;51.102;6.848;2023-04-24T09:51:01;11.07;;;7.87;;
20456;SDS011;10387;51.102;6.848;2023-04-24T09:53:28;10.67;;;7.83;;
20456;SDS011;10387;51.102;6.848;2023-04-24T09:55:54;10.63;;;8.07;;
20456;SDS011;10387;51.102;6.848;2023-04-24T09:58:28;10.77;;;8.53;;
20456;SDS011;10387;51.102;6.848;2023-04-24T10:00:55;13.00;;;9.23;;
20456;SDS011;10387;51.102;6.848;2023-04-24T10:03:25;11.67;;;8.43;;
20456;SDS011;10387;51.102;6.848;2023-04-24T10:05:52;12.93;;;8.63;;
20456;SDS011;10387;51.102;6.848;2023-04-24T10:08:19;12.83;;;9.00;;
20456;SDS011;10387;51.102;6.848;2023-04-24T10:10:46;11.57;;;8.70;;
20456;SDS011;10387;51.102;6.848;2023-04-24T10:13:13;12.17;;;8.17;;
20456;SDS011;10387;51.102;6.848;2023-04-24T10:15:40;11.80;;;7.87;;
20456;SDS011;10387;51.102;6.848;2023-04-24T10:18:06;11.87;;;8.10;;
20456;SDS011;10387;51.102;6.848;2023-04-24T10:20:40;10.40;;;7.70;;
20456;SDS011;10387;51.102;6.848;2023-04-24T10:23:06;9.60;;;7.30;;
20456;SDS011;10387;51.102;6.848;2023-04-24T10:25:33;10.10;;;7.47;;
20456;SDS011;10387;51.102;6.848;2023-04-24T10:28:00;10.70;;;7.80;;
20456;SDS011;10387;51.102;6.848;2023-04-24T10:30:27;8.53;;;6.97;;
20456;SDS011;10387;51.102;6.848;2023-04-24T10:32:54;8.73;;;6.73;;
20456;SDS011;10387;51.102;6.848;2023-04-24T10:35:22;9.47;;;6.77;;
20456;SDS011;10387;51.102;6.848;2023-04-24T10:37:56;10.43;;;6.43;;
20456;SDS011;10387;51.102;6.848;2023-04-24T10:40:27;7.73;;;6.40;;
20456;SDS011;10387;51.102;6.848;2023-04-24T10:42:55;9.83;;;6.60;;
20456;SDS011;10387;51.102;6.848;2023-04-24T10:45:22;8.93;;;6.63;;
20456;SDS011;10387;51.102;6.848;2023-04-24T10:47:59;9.60;;;6.23;;
20456;SDS011;10387;51.102;6.848;2023-04-24T10:50:34;12.80;;;7.20;;
20456;SDS011;10387;51.102;6.848;2023-04-24T10:53:12;10.20;;;6.73;;
20456;SDS011;10387;51.102;6.848;2023-04-24T10:58:11;9.07;;;5.70;;
20456;SDS011;10387;51.102;6.848;2023-04-24T11:00:40;9.70;;;5.47;;
20456;SDS011;10387;51.102;6.848;2023-04-24T11:03:23;7.57;;;4.60;;
20456;SDS011;10387;51.102;6.848;2023-04-24T11:08:23;8.13;;;4.97;;
20456;SDS011;10387;51.102;6.848;2023-04-24T11:10:55;7.37;;;4.77;;
20456;SDS011;10387;51.102;6.848;2023-04-24T11:13:22;8.30;;;5.30;;
20456;SDS011;10387;51.102;6.848;2023-04-24T11:18:37;7.90;;;5.10;;
20456;SDS011;10387;51.102;6.848;2023-04-24T11:21:12;9.20;;;4.80;;
20456;SDS011;10387;51.102;6.848;2023-04-24T11:23:39;7.67;;;4.30;;
20456;SDS011;10387;51.102;6.848;2023-04-24T11:26:27;6.83;;;4.53;;
20456;SDS011;10387;51.102;6.848;2023-04-24T11:29:06;9.23;;;4.57;;
20456;SDS011;10387;51.102;6.848;2023-04-24T11:31:39;7.43;;;4.63;;
20456;SDS011;10387;51.102;6.848;2023-04-24T11:34:13;12.10;;;5.27;;
20456;SDS011;10387;51.102;6.848;2023-04-24T11:36:42;8.90;;;5.70;;
20456;SDS011;10387;51.102;6.848;2023-04-24T11:39:08;8.03;;;4.53;;
20456;SDS011;10387;51.102;6.848;2023-04-24T11:41:36;10.27;;;5.07;;
20456;SDS011;10387;51.102;6.848;2023-04-24T11:44:02;8.53;;;5.37;;
20456;SDS011;10387;51.102;6.848;2023-04-24T11:46:29;7.10;;;5.30;;
20456;SDS011;10387;51.102;6.848;2023-04-24T11:48:57;7.73;;;5.17;;
20456;SDS011;10387;51.102;6.848;2023-04-24T11:51:23;6.37;;;5.00;;
20456;SDS011;10387;51.102;6.848;2023-04-24T11:53:55;8.17;;;4.90;;
20456;SDS011;10387;51.102;6.848;2023-04-24T11:56:21;9.03;;;5.47;;
20456;SDS011;10387;51.102;6.848;2023-04-24T11:58:48;9.57;;;4.80;;
20456;SDS011;10387;51.102;6.848;2023-04-24T12:01:14;9.40;;;5.10;;
20456;SDS011;10387;51.102;6.848;2023-04-24T12:03:40;8.03;;;4.73;;
20456;SDS011;10387;51.102;6.848;2023-04-24T12:06:11;8.43;;;4.87;;
20456;SDS011;10387;51.102;6.848;2023-04-24T12:08:38;6.60;;;3.90;;
20456;SDS011;10387;51.102;6.848;2023-04-24T12:11:05;6.90;;;4.00;;
20456;SDS011;10387;51.102;6.848;2023-04-24T12:13:34;9.40;;;5.30;;
20456;SDS011;10387;51.102;6.848;2023-04-24T12:16:03;7.13;;;4.13;;
20456;SDS011;10387;51.102;6.848;2023-04-24T12:18:30;7.73;;;4.13;;
20456;SDS011;10387;51.102;6.848;2023-04-24T12:21:14;8.50;;;4.47;;
20456;SDS011;10387;51.102;6.848;2023-04-24T12:23:42;9.03;;;5.17;;
20456;SDS011;10387;51.102;6.848;2023-04-24T12:26:08;7.97;;;3.83;;
20456;SDS011;10387;51.102;6.848;2023-04-24T12:28:35;7.83;;;3.80;;
20456;SDS011;10387;51.102;6.848;2023-04-24T12:31:01;7.97;;;4.17;;
20456;SDS011;10387;51.102;6.848;2023-04-24T12:33:28;5.57;;;3.80;;
20456;SDS011;10387;51.102;6.848;2023-04-24T12:35:58;5.17;;;3.50;;
20456;SDS011;10387;51.102;6.848;2023-04-24T12:38:25;12.20;;;3.83;;
20456;SDS011;10387;51.102;6.848;2023-04-24T12:43:53;6.93;;;3.77;;
20456;SDS011;10387;51.102;6.848;2023-04-24T12:46:20;4.67;;;3.73;;
20456;SDS011;10387;51.102;6.848;2023-04-24T12:48:46;5.80;;;4.70;;
20456;SDS011;10387;51.102;6.848;2023-04-24T12:51:12;6.53;;;3.77;;
20456;SDS011;10387;51.102;6.848;2023-04-24T12:53:38;5.17;;;3.93;;
20456;SDS011;10387;51.102;6.848;2023-04-24T12:56:05;5.53;;;3.67;;
20456;SDS011;10387;51.102;6.848;2023-04-24T12:58:31;5.87;;;4.33;;
20456;SDS011;10387;51.102;6.848;2023-04-24T13:00:57;6.17;;;3.97;;
20456;SDS011;10387;51.102;6.848;2023-04-24T13:03:23;8.17;;;4.20;;
20456;SDS011;10387;51.102;6.848;2023-04-24T13:05:50;5.70;;;5.07;;
20456;SDS011;10387;51.102;6.848;2023-04-24T13:08:16;5.30;;;3.93;;
20456;SDS011;10387;51.102;6.848;2023-04-24T13:10:42;5.13;;;4.63;;
20456;SDS011;10387;51.102;6.848;2023-04-24T13:13:08;4.07;;;3.53;;
20456;SDS011;10387;51.102;6.848;2023-04-24T13:15:34;4.03;;;3.40;;
20456;SDS011;10387;51.102;6.848;2023-04-24T13:18:01;4.20;;;3.03;;
20456;SDS011;10387;51.102;6.848;2023-04-24T13:20:27;4.63;;;3.40;;
20456;SDS011;10387;51.102;6.848;2023-04-24T13:22:53;6.70;;;3.37;;
20456;SDS011;10387;51.102;6.848;2023-04-24T13:25:19;4.73;;;3.20;;
20456;SDS011;10387;51.102;6.848;2023-04-24T13:27:47;3.97;;;3.30;;
20456;SDS011;10387;51.102;6.848;2023-04-24T13:30:13;4.37;;;3.40;;
20456;SDS011;10387;51.102;6.848;2023-04-24T13:32:39;4.73;;;3.20;;
20456;SDS011;10387;51.102;6.848;2023-04-24T13:35:06;4.60;;;3.13;;
20456;SDS011;10387;51.102;6.848;2023-04-24T13:37:32;4.33;;;3.40;;
20456;SDS011;10387;51.102;6.848;2023-04-24T13:39:58;4.13;;;3.70;;
20456;SDS011;10387;51.102;6.848;2023-04-24T13:42:25;4.57;;;4.07;;
20456;SDS011;10387;51.102;6.848;2023-04-24T13:44:52;5.17;;;3.43;;
20456;SDS011;10387;51.102;6.848;2023-04-24T13:47:19;6.10;;;3.77;;
20456;SDS011;10387;51.102;6.848;2023-04-24T13:49:45;5.50;;;5.00;;
20456;SDS011;10387;51.102;6.848;2023-04-24T13:52:11;5.47;;;3.17;;
20456;SDS011;10387;51.102;6.848;2023-04-24T13:54:37;9.20;;;6.07;;
20456;SDS011;10387;51.102;6.848;2023-04-24T13:57:03;6.83;;;4.60;;
20456;SDS011;10387;51.102;6.848;2023-04-24T13:59:29;4.60;;;3.30;;
20456;SDS011;10387;51.102;6.848;2023-04-24T14:01:56;5.90;;;4.10;;
20456;SDS011;10387;51.102;6.848;2023-04-24T14:04:22;6.77;;;3.90;;
20456;SDS011;10387;51.102;6.848;2023-04-24T14:06:48;7.60;;;4.10;;
20456;SDS011;10387;51.102;6.848;2023-04-24T14:09:14;5.27;;;4.17;;
20456;SDS011;10387;51.102;6.848;2023-04-24T14:11:40;5.90;;;3.67;;
20456;SDS011;10387;51.102;6.848;2023-04-24T14:14:06;6.00;;;3.40;;
20456;SDS011;10387;51.102;6.848;2023-04-24T14:16:33;5.53;;;3.80;;
20456;SDS011;10387;51.102;6.848;2023-04-24T14:19:00;5.30;;;4.77;;
20456;SDS011;10387;51.102;6.848;2023-04-24T14:21:26;6.27;;;4.63;;
20456;SDS011;10387;51.102;6.848;2023-04-24T14:23:52;7.20;;;3.93;;
20456;SDS011;10387;51.102;6.848;2023-04-24T14:26:18;5.57;;;3.50;;
20456;SDS011;10387;51.102;6.848;2023-04-24T14:28:45;5.50;;;3.80;;
20456;SDS011;10387;51.102;6.848;2023-04-24T14:31:11;4.23;;;3.30;;
20456;SDS011;10387;51.102;6.848;2023-04-24T14:33:37;5.70;;;3.77;;
20456;SDS011;10387;51.102;6.848;2023-04-24T14:36:03;6.80;;;5.27;;
20456;SDS011;10387;51.102;6.848;2023-04-24T14:38:30;7.13;;;4.27;;
20456;SDS011;10387;51.102;6.848;2023-04-24T14:40:56;5.97;;;3.30;;
20456;SDS011;10387;51.102;6.848;2023-04-24T14:43:23;4.00;;;3.60;;
20456;SDS011;10387;51.102;6.848;2023-04-24T14:45:49;6.33;;;4.30;;
20456;SDS011;10387;51.102;6.848;2023-04-24T14:48:15;5.60;;;3.37;;
20456;SDS011;10387;51.102;6.848;2023-04-24T14:50:42;4.13;;;2.83;;
20456;SDS011;10387;51.102;6.848;2023-04-24T14:53:08;5.03;;;3.40;;
20456;SDS011;10387;51.102;6.848;2023-04-24T14:55:35;3.87;;;2.77;;
20456;SDS011;10387;51.102;6.848;2023-04-24T14:58:03;3.63;;;3.17;;
20456;SDS011;10387;51.102;6.848;2023-04-24T15:00:29;7.23;;;3.60;;